LGX79A LJPZ-LYTV

Flight info

Callsign LGX79A
Flight time N/A
Altitude 31000
Route ILB DCT SIRMI DCT BIGLO
Aircraft C525/L-SDFGRWY/S

Departure

Time 2026-05-04 20:19
Airport Portorož Airport (LJPZ)

Arrival

Time N/A
Airport Tivat Airport (LYTV)
Time Latitude Longitude Altitude Speed Heading
2026-05-04 19:51 45.47423 13.61625 9 ft 0 kts 326°
2026-05-04 20:13 45.47418 13.61597 8 ft 7 kts 235°
2026-05-04 20:13 45.47391 13.61530 8 ft 8 kts 240°
2026-05-04 20:14 45.47355 13.61477 7 ft 5 kts 157°
2026-05-04 20:14 45.47327 13.61500 8 ft 3 kts 150°
2026-05-04 20:14 45.47279 13.61541 7 ft 12 kts 147°
2026-05-04 20:14 45.47184 13.61615 7 ft 16 kts 150°
2026-05-04 20:15 45.47091 13.61693 8 ft 14 kts 149°
2026-05-04 20:15 45.47008 13.61755 8 ft 12 kts 151°
2026-05-04 20:15 45.46962 13.61773 8 ft 0 kts 188°
2026-05-04 20:15 45.46958 13.61771 8 ft 0 kts 250°
2026-05-04 20:16 45.46962 13.61766 8 ft 1 kts 349°
2026-05-04 20:16 45.46967 13.61776 8 ft 0 kts 59°
2026-05-04 20:16 45.46977 13.61778 8 ft 0 kts 321°
2026-05-04 20:16 45.46977 13.61777 8 ft 0 kts 322°
2026-05-04 20:18 45.47003 13.61754 7 ft 28 kts 331°
2026-05-04 20:19 45.47425 13.61431 7 ft 103 kts 332°
2026-05-04 20:19 45.48076 13.60845 393 ft 118 kts 323°
2026-05-04 20:19 45.48767 13.60031 823 ft 141 kts 319°
2026-05-04 20:19 45.49533 13.59070 1412 ft 156 kts 315°
2026-05-04 20:20 45.50314 13.57952 2031 ft 170 kts 312°
2026-05-04 20:20 45.51120 13.56683 2776 ft 175 kts 309°
2026-05-04 20:20 45.51949 13.55438 3509 ft 177 kts 313°
2026-05-04 20:20 45.52824 13.54212 4204 ft 179 kts 314°
2026-05-04 20:21 45.53710 13.52989 4880 ft 180 kts 310°
2026-05-04 20:21 45.54106 13.51395 5556 ft 175 kts 263°
2026-05-04 20:21 45.52387 13.49498 6869 ft 184 kts 176°
2026-05-04 20:22 45.51214 13.50243 7528 ft 190 kts 147°
2026-05-04 20:22 45.50268 13.51539 8156 ft 195 kts 131°
2026-05-04 20:22 45.49541 13.53161 8788 ft 197 kts 124°
2026-05-04 20:22 45.48983 13.54934 9350 ft 205 kts 102°
2026-05-04 20:23 45.49029 13.56981 9953 ft 209 kts 85°
2026-05-04 20:23 45.49312 13.58990 10530 ft 211 kts 80°
2026-05-04 20:23 45.49644 13.61041 11097 ft 213 kts 81°
2026-05-04 20:23 45.49949 13.63075 11670 ft 213 kts 82°
2026-05-04 20:24 45.50227 13.65112 12232 ft 213 kts 83°
2026-05-04 20:24 45.50492 13.67191 12817 ft 213 kts 84°
2026-05-04 20:24 45.50727 13.69080 13320 ft 214 kts 85°